« 梅雨明け 富山空港 2020/8/2 sun | トップページ | 定点 富山空港 2020/8/8 sat »

2020/08/04

定点 富山空港 2020/8/4 tue

8月になりましが、今年の浜は海水浴客のいない静かな浜です。ほんとに、誰も来とらんがい。

RJNT 032300Z 20003KT 170V230 9999 FEW080 SCT200 BKN/// 27/23 Q1014

20200804_rjnt_00ja83an

ANA313 RJTT-RJNT JA83AN B737-881

20200804_rjnt_01silverwind

SILVER WIND 9LU2463 SL

RJNT 040000Z 23003KT 130V310 9999 FEW080 BKN/// 30/24 Q1014

20200804_rjnt_02ja83an

ANA316 RJNT-RJTT JA83AN B737-881

RJNT 040100Z VRB02KT 9999 FEW030 31/22 Q1014

20200804_rjnt_03ja139t

あら早く引き出されたと思ったら、御座所付。

###

###

20200804_rjnt_04ja139t

JA139T AW139 富山県警察 お偉い方フライト

RJNT 040200Z 31004KT 230V360 9999 FEW030 33/23 Q1014

20200804_rjnt_05ja9878

JA9878↓ AS350B THK

20200804_rjnt_06ja6502

JA6502↓ AS350B3 AKF

20200804_rjnt_07ja6502

JA6502↑

###

###

20200804_rjnt_08ja139t

エンジンシャットダウン

富山で一番暑い記録の出る富山空港です。お昼で撤収しました。

後談:午後から所要を済ませて、ツイッターをゴニョゴニョしてたら、ありゃー大失態。長い間留守にしていた防災の「とやま」さんが帰って来た。夏の午後はあり得ないと勝手に思いこんでいたら、なんと雄山神社詣でをして、平野に降りてくるではないですか。長い間、待ってたよー。しばらく訓練強化になるかな。

 

|

« 梅雨明け 富山空港 2020/8/2 sun | トップページ | 定点 富山空港 2020/8/8 sat »

富山空港」カテゴリの記事

コメント

コメントを書く



(ウェブ上には掲載しません)


コメントは記事投稿者が公開するまで表示されません。



« 梅雨明け 富山空港 2020/8/2 sun | トップページ | 定点 富山空港 2020/8/8 sat »